createdAt,value
2018-12-25T00:00:25.089Z,3.74
2018-12-25T00:02:53.730Z,3.71
2018-12-25T00:05:22.326Z,3.56
2018-12-25T00:07:50.969Z,3.76
2018-12-25T00:10:19.568Z,3.69
2018-12-25T00:12:49.787Z,3.77
2018-12-25T00:15:18.444Z,3.76
2018-12-25T00:17:47.110Z,3.74
2018-12-25T00:20:15.768Z,3.77
2018-12-25T00:22:47.473Z,3.80
2018-12-25T00:25:16.060Z,3.83
2018-12-25T00:27:44.686Z,3.91
2018-12-25T00:30:13.308Z,3.91
2018-12-25T00:32:41.957Z,3.99
2018-12-25T00:35:10.552Z,3.87
2018-12-25T00:37:39.258Z,3.97
2018-12-25T00:40:07.869Z,3.97
2018-12-25T00:42:36.656Z,3.95
2018-12-25T00:45:05.785Z,3.98
2018-12-25T00:47:34.454Z,3.98
2018-12-25T00:50:03.097Z,3.98
2018-12-25T00:52:31.706Z,4.03
2018-12-25T00:55:00.351Z,3.99
2018-12-25T00:57:29.136Z,4.01
2018-12-25T00:59:58.230Z,4.09
2018-12-25T01:02:27.057Z,4.08
2018-12-25T01:04:55.884Z,4.12
2018-12-25T01:07:25.989Z,4.08
2018-12-25T01:09:55.965Z,4.07
2018-12-25T01:12:24.649Z,4.11
2018-12-25T01:14:54.440Z,4.03
2018-12-25T01:17:23.352Z,4.16
2018-12-25T01:19:52.139Z,4.20
2018-12-25T01:22:21.038Z,4.16
2018-12-25T01:24:49.717Z,4.13
2018-12-25T01:27:18.606Z,4.15
2018-12-25T01:29:47.295Z,4.18
2018-12-25T01:32:15.980Z,4.14
2018-12-25T01:34:44.770Z,4.12
2018-12-25T01:37:14.026Z,4.17
2018-12-25T01:39:42.756Z,4.15
2018-12-25T01:42:11.956Z,4.12
2018-12-25T01:44:40.847Z,4.23
2018-12-25T01:47:09.526Z,4.13
2018-12-25T01:49:38.419Z,4.21
2018-12-25T01:52:07.204Z,4.25
2018-12-25T01:54:36.356Z,4.23
2018-12-25T01:57:05.090Z,4.23
2018-12-25T01:59:33.888Z,4.33
2018-12-25T02:02:02.662Z,4.31
2018-12-25T02:04:31.353Z,4.13
2018-12-25T02:07:00.139Z,4.24
2018-12-25T02:09:29.290Z,4.14
2018-12-25T02:11:58.021Z,4.30
2018-12-25T02:14:27.752Z,4.19
2018-12-25T02:16:56.522Z,4.16
2018-12-25T02:19:25.410Z,4.13
2018-12-25T02:21:54.199Z,4.23
2018-12-25T02:24:22.889Z,4.25
2018-12-25T02:26:51.981Z,4.34
2018-12-25T02:29:20.882Z,4.24
2018-12-25T02:31:49.657Z,4.25
2018-12-25T02:34:18.612Z,4.16
2018-12-25T02:36:47.352Z,4.27
2018-12-25T02:39:16.023Z,4.35
2018-12-25T02:41:44.811Z,4.44
2018-12-25T02:44:13.599Z,4.48
2018-12-25T02:46:42.385Z,4.41
2018-12-25T02:49:11.086Z,4.37
2018-12-25T02:51:39.870Z,4.42
2018-12-25T02:54:08.752Z,4.44
2018-12-25T02:56:37.540Z,4.45
2018-12-25T02:59:06.224Z,4.41
2018-12-25T03:01:35.221Z,4.43
2018-12-25T03:04:04.110Z,4.38
2018-12-25T03:06:32.998Z,4.54
2018-12-25T03:09:01.689Z,4.51
2018-12-25T03:11:30.479Z,4.53
2018-12-25T03:13:59.160Z,4.53
2018-12-25T03:16:27.947Z,4.56
2018-12-25T03:18:56.738Z,4.61
2018-12-25T03:21:25.524Z,4.70
2018-12-25T03:23:54.542Z,4.66
2018-12-25T03:26:23.303Z,4.58
2018-12-25T03:28:52.194Z,4.55
2018-12-25T03:31:21.007Z,4.63
2018-12-25T03:33:49.871Z,4.50
2018-12-25T03:36:18.562Z,4.50
2018-12-25T03:38:47.351Z,4.52
2018-12-25T03:41:16.133Z,4.55
2018-12-25T03:43:45.026Z,4.52
2018-12-25T03:46:13.831Z,4.52
2018-12-25T03:48:42.599Z,4.59
2018-12-25T03:51:11.390Z,4.56
2018-12-25T03:53:40.175Z,4.49
2018-12-25T03:56:09.115Z,4.34
2018-12-25T03:58:37.856Z,4.43
2018-12-25T04:01:06.850Z,4.38
2018-12-25T04:03:35.774Z,4.43
2018-12-25T04:06:04.547Z,4.33
2018-12-25T04:08:33.329Z,4.36
2018-12-25T04:11:02.103Z,4.41
2018-12-25T04:13:30.890Z,4.31
2018-12-25T04:15:59.575Z,4.33
2018-12-25T04:18:28.377Z,4.41
2018-12-25T04:20:57.152Z,4.29
2018-12-25T04:23:26.042Z,4.26
2018-12-25T04:25:54.832Z,4.31
2018-12-25T04:28:23.620Z,4.39
2018-12-25T04:30:52.352Z,4.20
2018-12-25T04:33:21.098Z,4.33
2018-12-25T04:35:49.783Z,4.37
2018-12-25T04:38:18.567Z,4.37
2018-12-25T04:40:47.361Z,4.34
2018-12-25T04:43:16.142Z,4.36
2018-12-25T04:45:44.827Z,4.34
2018-12-25T04:48:13.619Z,4.38
2018-12-25T04:50:42.302Z,4.32
2018-12-25T04:53:11.091Z,4.31
2018-12-25T04:55:39.878Z,4.35
2018-12-25T04:58:10.305Z,4.25
2018-12-25T05:00:38.991Z,4.26
2018-12-25T05:03:07.784Z,4.30
2018-12-25T05:05:36.565Z,4.17
2018-12-25T05:08:05.356Z,4.20
2018-12-25T05:10:34.875Z,4.22
2018-12-25T05:13:03.612Z,4.19
2018-12-25T05:15:32.435Z,4.23
2018-12-25T05:18:01.249Z,4.15
2018-12-25T05:20:37.782Z,4.21
2018-12-25T05:23:02.180Z,4.15
2018-12-25T05:25:31.067Z,4.18
2018-12-25T05:27:59.856Z,4.17
2018-12-25T05:30:28.647Z,4.21
2018-12-25T05:32:57.503Z,4.21
2018-12-25T05:35:26.221Z,4.17
2018-12-25T05:37:54.907Z,4.15
2018-12-25T05:40:23.694Z,4.13
2018-12-25T05:42:52.534Z,4.14
2018-12-25T05:45:21.273Z,4.17
2018-12-25T05:47:50.164Z,4.19
2018-12-25T05:50:18.973Z,4.19
2018-12-25T05:52:49.477Z,4.22
2018-12-25T05:55:19.532Z,4.28
2018-12-25T05:57:48.347Z,4.28
2018-12-25T06:00:17.070Z,4.22
2018-12-25T06:02:47.087Z,4.31
2018-12-25T06:05:15.782Z,4.30
2018-12-25T06:07:44.462Z,4.29
2018-12-25T06:10:13.247Z,4.34
2018-12-25T06:12:42.036Z,4.34
2018-12-25T06:15:11.029Z,4.33
2018-12-25T06:17:39.944Z,4.32
2018-12-25T06:20:10.345Z,4.38
2018-12-25T06:22:39.192Z,4.38
2018-12-25T06:25:07.819Z,4.30
2018-12-25T06:27:36.609Z,4.26
2018-12-25T06:30:07.363Z,4.42
2018-12-25T06:32:36.026Z,4.39
2018-12-25T06:35:05.121Z,4.41
2018-12-25T06:37:34.012Z,4.40
2018-12-25T06:40:02.823Z,4.47
2018-12-25T06:42:31.590Z,4.42
2018-12-25T06:45:00.276Z,4.47
2018-12-25T06:47:29.063Z,4.41
2018-12-25T06:49:57.956Z,4.37
2018-12-25T06:52:28.230Z,4.50
2018-12-25T06:54:56.864Z,4.50
2018-12-25T06:57:27.592Z,4.48
2018-12-25T06:59:56.496Z,4.56
2018-12-25T07:02:25.284Z,4.53
2018-12-25T07:04:54.265Z,4.57
2018-12-25T07:07:23.006Z,4.61
2018-12-25T07:09:51.739Z,4.51
2018-12-25T07:12:20.628Z,4.48
2018-12-25T07:14:49.314Z,4.61
2018-12-25T07:17:18.105Z,4.50
2018-12-25T07:19:46.890Z,4.52
2018-12-25T07:22:15.780Z,4.50
2018-12-25T07:24:45.597Z,4.45
2018-12-25T07:27:14.283Z,4.41
2018-12-25T07:29:43.173Z,4.44
2018-12-25T07:32:12.265Z,4.55
2018-12-25T07:34:41.128Z,4.52
2018-12-25T07:37:10.185Z,4.44
2018-12-25T07:39:38.823Z,4.30
2018-12-25T07:42:07.422Z,4.33
2018-12-25T07:44:38.896Z,4.29
2018-12-25T07:47:07.552Z,4.33
2018-12-25T07:49:36.340Z,4.46
2018-12-25T07:52:05.083Z,4.40
2018-12-25T07:54:33.817Z,4.52
2018-12-25T07:57:02.500Z,4.44
2018-12-25T07:59:31.289Z,4.40
2018-12-25T08:01:59.978Z,4.56
2018-12-25T08:04:28.760Z,4.40
2018-12-25T08:06:57.490Z,4.47
2018-12-25T08:09:26.440Z,4.54
2018-12-25T08:11:55.229Z,4.40
2018-12-25T08:14:24.017Z,4.52
2018-12-25T08:16:52.809Z,4.56
2018-12-25T08:19:22.644Z,4.62
2018-12-25T08:21:53.044Z,4.57
2018-12-25T08:24:21.803Z,4.62
2018-12-25T08:26:50.496Z,4.56
2018-12-25T08:29:19.331Z,4.58
2018-12-25T08:31:47.990Z,4.68
2018-12-25T08:34:16.758Z,4.75
2018-12-25T08:36:45.606Z,4.81
2018-12-25T08:39:14.355Z,4.79
2018-12-25T08:41:43.264Z,4.81
2018-12-25T08:44:11.934Z,4.87
2018-12-25T08:46:40.980Z,4.85
2018-12-25T08:49:09.716Z,4.87
2018-12-25T08:51:38.397Z,4.99
2018-12-25T08:54:07.291Z,4.90
2018-12-25T08:56:36.179Z,4.95
2018-12-25T08:59:04.971Z,5.02
2018-12-25T09:01:33.752Z,5.00
2018-12-25T09:04:02.543Z,4.94
2018-12-25T09:06:31.329Z,5.20
2018-12-25T09:09:00.118Z,5.02
2018-12-25T09:11:29.008Z,5.07
2018-12-25T09:13:57.947Z,5.17
2018-12-25T09:16:26.789Z,5.21
2018-12-25T09:18:55.650Z,5.19
2018-12-25T09:21:24.396Z,5.16
2018-12-25T09:23:53.187Z,5.28
2018-12-25T09:26:21.953Z,5.13
2018-12-25T09:28:50.865Z,5.06
2018-12-25T09:31:19.445Z,5.16
2018-12-25T09:33:48.101Z,5.15
2018-12-25T09:36:16.888Z,5.25
2018-12-25T09:38:45.595Z,5.24
2018-12-25T09:41:14.865Z,5.35
2018-12-25T09:43:43.573Z,5.25
2018-12-25T09:46:12.150Z,5.35
2018-12-25T09:48:40.842Z,5.33
2018-12-25T09:51:09.423Z,5.38
2018-12-25T09:53:38.035Z,5.45
2018-12-25T09:56:06.624Z,5.44
2018-12-25T09:58:36.913Z,5.52
2018-12-25T10:01:05.564Z,5.60
2018-12-25T10:03:34.256Z,5.63
2018-12-25T10:06:02.859Z,5.54
2018-12-25T10:08:31.486Z,5.64
2018-12-25T10:11:00.102Z,5.79
2018-12-25T10:13:28.818Z,5.68
2018-12-25T10:15:57.502Z,5.83
2018-12-25T10:18:26.401Z,5.72
2018-12-25T10:20:55.021Z,5.56
2018-12-25T10:23:23.669Z,5.57
2018-12-25T10:25:52.390Z,5.62
2018-12-25T10:28:21.144Z,5.65
2018-12-25T10:30:49.750Z,5.49
2018-12-25T10:33:18.472Z,5.85
2018-12-25T10:35:47.152Z,5.83
2018-12-25T10:38:15.762Z,5.90
2018-12-25T10:40:44.395Z,5.88
2018-12-25T10:43:13.035Z,6.11
2018-12-25T10:45:41.663Z,5.68
2018-12-25T10:48:10.421Z,6.08
2018-12-25T10:50:38.987Z,6.25
2018-12-25T10:53:07.700Z,6.28
2018-12-25T10:55:36.278Z,6.25
2018-12-25T10:58:04.913Z,6.05
2018-12-25T11:00:36.861Z,6.10
2018-12-25T11:03:05.503Z,6.13
2018-12-25T11:05:34.076Z,6.09
2018-12-25T11:08:02.689Z,6.01
2018-12-25T11:10:31.378Z,6.14
2018-12-25T11:13:00.132Z,5.99
2018-12-25T11:15:28.711Z,6.00
2018-12-25T11:17:57.374Z,6.18
2018-12-25T11:20:26.312Z,6.17
2018-12-25T11:22:54.941Z,6.09
2018-12-25T11:25:23.648Z,6.04
2018-12-25T11:27:52.448Z,5.97
2018-12-25T11:30:21.142Z,6.05
2018-12-25T11:32:49.867Z,5.91
2018-12-25T11:35:18.445Z,6.07
2018-12-25T11:37:47.065Z,5.91
2018-12-25T11:40:15.852Z,5.96
2018-12-25T11:42:44.616Z,6.01
2018-12-25T11:45:13.755Z,6.00
2018-12-25T11:47:42.553Z,6.24
2018-12-25T11:50:11.172Z,6.08
2018-12-25T11:52:39.793Z,6.10
2018-12-25T11:55:08.379Z,6.19
2018-12-25T11:57:37.084Z,6.20
2018-12-25T12:00:07.780Z,6.06
2018-12-25T12:02:36.591Z,6.11
2018-12-25T12:05:05.185Z,6.22
2018-12-25T12:07:33.888Z,6.28
2018-12-25T12:10:02.559Z,6.26
2018-12-25T12:12:31.232Z,6.25
2018-12-25T12:14:59.912Z,5.97
2018-12-25T12:17:28.604Z,6.25
2018-12-25T12:19:59.938Z,6.33
2018-12-25T12:22:36.774Z,6.29
2018-12-25T12:24:59.051Z,6.28
2018-12-25T12:27:27.758Z,6.22
2018-12-25T12:29:56.400Z,6.16
2018-12-25T12:32:25.241Z,6.25
2018-12-25T12:34:53.949Z,6.35
2018-12-25T12:37:22.589Z,6.36
2018-12-25T12:39:52.855Z,6.41
2018-12-25T12:42:21.593Z,6.45
2018-12-25T12:44:50.276Z,6.38
2018-12-25T12:47:19.011Z,6.23
2018-12-25T12:49:48.157Z,6.22
2018-12-25T12:52:16.896Z,6.16
2018-12-25T12:54:45.541Z,6.20
2018-12-25T12:57:14.218Z,6.29
2018-12-25T12:59:43.030Z,6.41
2018-12-25T13:02:11.614Z,6.32
2018-12-25T13:04:40.311Z,6.50
2018-12-25T13:07:08.904Z,6.20
2018-12-25T13:09:37.682Z,6.18
2018-12-25T13:12:06.274Z,6.16
2018-12-25T13:14:34.915Z,6.09
2018-12-25T13:17:03.588Z,6.14
2018-12-25T13:19:32.250Z,6.15
2018-12-25T13:22:00.878Z,6.13
2018-12-25T13:24:29.540Z,6.07
2018-12-25T13:26:58.198Z,6.32
2018-12-25T13:29:26.955Z,6.08
2018-12-25T13:31:55.765Z,6.19
2018-12-25T13:34:24.827Z,6.04
2018-12-25T13:36:53.569Z,6.13
2018-12-25T13:39:22.268Z,6.24
2018-12-25T13:41:51.398Z,6.19
2018-12-25T13:44:20.265Z,6.20
2018-12-25T13:46:51.672Z,6.11
2018-12-25T13:49:19.220Z,6.13
2018-12-25T13:51:47.832Z,6.04
2018-12-25T13:54:18.034Z,6.20
2018-12-25T13:56:46.632Z,6.06
2018-12-25T13:59:15.283Z,6.05
2018-12-25T14:01:43.937Z,6.07
2018-12-25T14:04:12.579Z,6.07
2018-12-25T14:06:41.297Z,6.00
2018-12-25T14:09:09.956Z,6.06
2018-12-25T14:11:38.694Z,6.00
2018-12-25T14:14:07.425Z,6.01
2018-12-25T14:16:36.121Z,6.08
2018-12-25T14:19:04.757Z,5.99
2018-12-25T14:21:33.501Z,5.97
2018-12-25T14:24:02.304Z,6.00
2018-12-25T14:26:30.885Z,6.01
2018-12-25T14:28:59.548Z,6.07
2018-12-25T14:31:28.130Z,6.04
2018-12-25T14:33:56.782Z,5.92
2018-12-25T14:36:25.407Z,5.97
2018-12-25T14:38:54.012Z,6.02
2018-12-25T14:41:22.640Z,6.18
2018-12-25T14:43:51.324Z,6.04
2018-12-25T14:46:19.916Z,6.10
2018-12-25T14:48:48.629Z,6.00
2018-12-25T14:51:17.312Z,6.05
2018-12-25T14:53:45.970Z,5.97
2018-12-25T14:56:14.553Z,5.94
2018-12-25T14:58:43.206Z,5.83
2018-12-25T15:01:11.881Z,5.93
2018-12-25T15:03:40.650Z,5.97
2018-12-25T15:06:09.356Z,5.97
2018-12-25T15:08:38.109Z,5.93
2018-12-25T15:11:06.766Z,5.92
2018-12-25T15:13:35.426Z,5.85
2018-12-25T15:16:04.029Z,5.89
2018-12-25T15:18:32.661Z,5.92
2018-12-25T15:21:01.231Z,5.99
2018-12-25T15:23:29.908Z,5.89
2018-12-25T15:25:58.481Z,5.81
2018-12-25T15:28:27.211Z,5.95
2018-12-25T15:30:55.886Z,5.92
2018-12-25T15:33:24.507Z,5.84
2018-12-25T15:35:53.096Z,5.84
2018-12-25T15:38:21.765Z,5.86
2018-12-25T15:40:50.373Z,5.86
2018-12-25T15:43:19.058Z,5.84
2018-12-25T15:45:47.758Z,5.89
2018-12-25T15:48:16.488Z,5.91
2018-12-25T15:50:45.149Z,5.87
2018-12-25T15:53:13.949Z,5.85
2018-12-25T15:55:42.595Z,5.85
2018-12-25T15:58:11.403Z,5.90
2018-12-25T16:00:40.182Z,5.86
2018-12-25T16:03:08.960Z,5.92
2018-12-25T16:05:38.772Z,5.82
2018-12-25T16:08:07.537Z,5.84
2018-12-25T16:10:36.113Z,5.83
2018-12-25T16:13:04.736Z,5.92
2018-12-25T16:15:33.419Z,5.94
2018-12-25T16:18:02.144Z,5.92
2018-12-25T16:20:30.771Z,5.83
2018-12-25T16:22:59.416Z,5.86
2018-12-25T16:25:28.041Z,5.87
2018-12-25T16:27:56.740Z,5.94
2018-12-25T16:30:25.409Z,5.85
2018-12-25T16:32:54.058Z,5.91
2018-12-25T16:35:22.685Z,5.88
2018-12-25T16:37:51.379Z,5.90
2018-12-25T16:40:20.069Z,5.90
2018-12-25T16:42:48.683Z,5.95
2018-12-25T16:45:17.332Z,5.85
2018-12-25T16:47:46.009Z,5.88
2018-12-25T16:50:14.703Z,5.92
2018-12-25T16:52:43.389Z,5.95
2018-12-25T16:55:12.180Z,5.99
2018-12-25T16:57:40.863Z,5.88
2018-12-25T17:00:10.678Z,5.94
2018-12-25T17:02:39.361Z,6.00
2018-12-25T17:05:08.257Z,5.86
2018-12-25T17:07:36.938Z,5.89
2018-12-25T17:10:07.096Z,5.87
2018-12-25T17:12:35.719Z,5.76
2018-12-25T17:15:04.670Z,5.75
2018-12-25T17:17:33.329Z,5.87
2018-12-25T17:20:01.916Z,5.90
2018-12-25T17:22:30.544Z,5.88
2018-12-25T17:24:59.806Z,5.88
2018-12-25T17:27:28.524Z,5.85
2018-12-25T17:29:57.200Z,5.91
2018-12-25T17:32:25.846Z,5.86
2018-12-25T17:34:54.532Z,5.99
2018-12-25T17:37:23.155Z,5.88
2018-12-25T17:39:51.746Z,5.82
2018-12-25T17:42:20.430Z,5.78
2018-12-25T17:44:50.936Z,5.87
2018-12-25T17:47:20.516Z,5.85
2018-12-25T17:49:49.307Z,5.81
2018-12-25T17:52:18.200Z,5.83
2018-12-25T17:54:46.987Z,5.83
2018-12-25T17:57:15.787Z,5.85
2018-12-25T17:59:44.561Z,5.84
2018-12-25T18:02:14.999Z,5.83
2018-12-25T18:04:43.787Z,5.85
2018-12-25T18:07:12.483Z,5.82
2018-12-25T18:09:41.250Z,5.81
2018-12-25T18:12:10.146Z,5.81
2018-12-25T18:14:38.927Z,5.89
2018-12-25T18:17:07.715Z,5.87
2018-12-25T18:19:36.627Z,5.87
2018-12-25T18:22:05.472Z,5.84
2018-12-25T18:24:34.186Z,5.82
2018-12-25T18:27:03.188Z,5.86
2018-12-25T18:29:31.966Z,5.76
2018-12-25T18:32:02.432Z,5.74
2018-12-25T18:34:31.090Z,5.77
2018-12-25T18:37:00.138Z,5.79
2018-12-25T18:39:29.074Z,5.79
2018-12-25T18:41:58.023Z,5.71
2018-12-25T18:44:26.743Z,5.80
2018-12-25T18:46:55.532Z,5.74
2018-12-25T18:49:25.853Z,5.88
2018-12-25T18:51:56.287Z,5.88
2018-12-25T18:54:27.885Z,5.77
2018-12-25T18:56:55.502Z,5.81
2018-12-25T18:59:24.601Z,5.76
2018-12-25T19:01:54.406Z,5.69
2018-12-25T19:04:24.212Z,5.70
2018-12-25T19:06:53.007Z,5.75
2018-12-25T19:09:21.791Z,5.79
2018-12-25T19:11:50.784Z,5.73
2018-12-25T19:14:20.485Z,5.80
2018-12-25T19:16:51.700Z,5.74
2018-12-25T19:19:22.675Z,5.83
2018-12-25T19:21:52.389Z,5.74
2018-12-25T19:24:21.079Z,5.68
2018-12-25T19:26:49.755Z,5.66
2018-12-25T19:29:18.547Z,5.72
2018-12-25T19:31:47.232Z,5.75
2018-12-25T19:34:16.123Z,5.69
2018-12-25T19:36:44.807Z,5.74
2018-12-25T19:39:13.800Z,5.57
2018-12-25T19:41:42.485Z,5.77
2018-12-25T19:44:11.288Z,5.72
2018-12-25T19:46:40.271Z,5.78
2018-12-25T19:49:09.054Z,5.77
2018-12-25T19:51:37.844Z,5.79
2018-12-25T19:54:06.732Z,5.76
2018-12-25T19:56:35.521Z,5.80
2018-12-25T19:59:04.279Z,5.73
2018-12-25T20:01:32.893Z,5.83
2018-12-25T20:04:03.218Z,5.73
2018-12-25T20:06:46.967Z,5.80
2018-12-25T20:09:52.234Z,5.78
2018-12-25T20:12:56.420Z,5.79
2018-12-25T20:15:55.517Z,5.70
2018-12-25T20:18:27.478Z,5.67
2018-12-25T20:21:14.087Z,5.77
2018-12-25T20:24:19.241Z,5.80
2018-12-25T20:27:18.649Z,5.76
2018-12-25T20:30:02.770Z,5.77
2018-12-25T20:32:37.406Z,5.70
2018-12-25T20:35:30.664Z,5.75
2018-12-25T20:38:17.891Z,5.77
2018-12-25T20:41:13.502Z,5.68
2018-12-25T20:44:18.540Z,5.69
2018-12-25T20:47:06.886Z,5.70
2018-12-25T20:49:54.216Z,5.68
2018-12-25T20:52:31.735Z,5.81
2018-12-25T20:55:29.266Z,5.72
2018-12-25T20:58:13.207Z,5.82
2018-12-25T21:00:56.948Z,5.76
2018-12-25T21:03:52.974Z,5.75
2018-12-25T21:06:42.756Z,5.86
2018-12-25T21:09:32.948Z,5.79
2018-12-25T21:12:39.415Z,5.83
2018-12-25T21:15:44.390Z,5.86
2018-12-25T21:18:38.944Z,5.85
2018-12-25T21:21:26.166Z,5.84
2018-12-25T21:24:31.610Z,5.90
2018-12-25T21:27:30.609Z,5.87
2018-12-25T21:30:00.889Z,5.83
2018-12-25T21:32:31.054Z,5.88
2018-12-25T21:35:11.819Z,5.83
2018-12-25T21:37:40.916Z,5.88
2018-12-25T21:40:09.704Z,5.85
2018-12-25T21:42:38.900Z,5.93
2018-12-25T21:45:08.407Z,5.91
2018-12-25T21:47:37.298Z,5.99
2018-12-25T21:50:08.234Z,5.89
2018-12-25T21:52:37.022Z,5.87
2018-12-25T21:55:08.299Z,5.94
2018-12-25T21:57:37.979Z,5.90
2018-12-25T22:00:10.043Z,5.88
2018-12-25T22:02:39.752Z,5.90
2018-12-25T22:05:08.746Z,5.92
2018-12-25T22:07:38.250Z,5.86
2018-12-25T22:10:08.176Z,5.88
2018-12-25T22:12:36.953Z,5.84
2018-12-25T22:15:07.788Z,5.92
2018-12-25T22:17:36.588Z,5.99
2018-12-25T22:20:14.162Z,5.88
2018-12-25T22:22:42.970Z,5.90
2018-12-25T22:25:11.748Z,5.97
2018-12-25T22:27:40.535Z,5.94
2018-12-25T22:30:09.323Z,5.92
2018-12-25T22:32:39.032Z,5.99
2018-12-25T22:35:07.824Z,5.90
2018-12-25T22:37:36.610Z,5.99
2018-12-25T22:40:06.322Z,6.00
2018-12-25T22:42:35.111Z,5.95
2018-12-25T22:45:05.330Z,5.91
2018-12-25T22:47:34.015Z,6.07
2018-12-25T22:50:02.806Z,6.01
2018-12-25T22:52:31.693Z,6.02
2018-12-25T22:55:00.381Z,6.09
2018-12-25T22:57:29.167Z,6.09
2018-12-25T22:59:57.852Z,6.08
2018-12-25T23:02:26.640Z,6.06
2018-12-25T23:04:55.429Z,6.02
2018-12-25T23:07:24.219Z,6.10
2018-12-25T23:09:52.907Z,6.13
2018-12-25T23:12:21.587Z,6.07
2018-12-25T23:14:50.377Z,6.18
2018-12-25T23:17:19.064Z,6.19
2018-12-25T23:19:47.853Z,6.08
2018-12-25T23:22:16.538Z,6.04
2018-12-25T23:24:45.326Z,6.10
2018-12-25T23:27:14.011Z,6.13
2018-12-25T23:29:42.900Z,6.16
2018-12-25T23:32:11.691Z,6.21
2018-12-25T23:34:40.376Z,6.12
2018-12-25T23:37:09.163Z,6.04
2018-12-25T23:39:38.770Z,6.10
2018-12-25T23:42:07.455Z,6.12
2018-12-25T23:44:36.244Z,6.07
2018-12-25T23:47:04.932Z,6.05
2018-12-25T23:49:33.718Z,6.18
2018-12-25T23:52:02.403Z,6.18
2018-12-25T23:54:31.195Z,6.18
2018-12-25T23:56:59.877Z,6.15
2018-12-25T23:59:28.668Z,6.14
